sensor_id;sensor_type;location;lat;lon;timestamp;temperature;humidity
3794;DHT22;1912;51.358;12.282;2023-08-31T03:45:42;13.10;1.00
3794;DHT22;1912;51.358;12.282;2023-08-31T03:48:07;13.10;1.00
3794;DHT22;1912;51.358;12.282;2023-08-31T03:50:33;13.10;1.00
3794;DHT22;1912;51.358;12.282;2023-08-31T03:52:59;13.10;1.00
3794;DHT22;1912;51.358;12.282;2023-08-31T03:55:24;13.10;1.00
3794;DHT22;1912;51.358;12.282;2023-08-31T03:57:50;13.10;1.00
3794;DHT22;1912;51.358;12.282;2023-08-31T04:00:16;13.10;1.00
3794;DHT22;1912;51.358;12.282;2023-08-31T04:02:42;13.20;1.00
3794;DHT22;1912;51.358;12.282;2023-08-31T04:05:09;13.20;1.00
3794;DHT22;1912;51.358;12.282;2023-08-31T04:07:35;13.10;1.00
3794;DHT22;1912;51.358;12.282;2023-08-31T04:10:01;13.20;1.00
3794;DHT22;1912;51.358;12.282;2023-08-31T04:12:29;13.20;1.00
3794;DHT22;1912;51.358;12.282;2023-08-31T04:14:56;13.20;1.00
3794;DHT22;1912;51.358;12.282;2023-08-31T04:17:21;13.20;1.00
3794;DHT22;1912;51.358;12.282;2023-08-31T04:19:47;13.30;1.00
3794;DHT22;1912;51.358;12.282;2023-08-31T04:22:13;13.30;1.00
3794;DHT22;1912;51.358;12.282;2023-08-31T04:24:39;13.30;1.00
3794;DHT22;1912;51.358;12.282;2023-08-31T04:27:04;13.30;1.00
3794;DHT22;1912;51.358;12.282;2023-08-31T04:29:30;13.30;1.00
3794;DHT22;1912;51.358;12.282;2023-08-31T04:31:56;13.30;1.00
3794;DHT22;1912;51.358;12.282;2023-08-31T04:34:21;13.30;1.00
3794;DHT22;1912;51.358;12.282;2023-08-31T04:36:47;13.40;1.00
3794;DHT22;1912;51.358;12.282;2023-08-31T04:39:13;13.30;1.00
3794;DHT22;1912;51.358;12.282;2023-08-31T04:41:38;13.40;1.00
3794;DHT22;1912;51.358;12.282;2023-08-31T04:44:04;13.30;1.00
3794;DHT22;1912;51.358;12.282;2023-08-31T04:46:30;13.40;1.00
3794;DHT22;1912;51.358;12.282;2023-08-31T04:48:55;13.40;1.00
3794;DHT22;1912;51.358;12.282;2023-08-31T04:51:31;13.40;1.00
3794;DHT22;1912;51.358;12.282;2023-08-31T04:53:58;13.40;1.00
3794;DHT22;1912;51.358;12.282;2023-08-31T04:56:24;13.40;1.00
3794;DHT22;1912;51.358;12.282;2023-08-31T04:58:50;13.30;1.00
3794;DHT22;1912;51.358;12.282;2023-08-31T05:01:16;13.30;1.00
3794;DHT22;1912;51.358;12.282;2023-08-31T05:03:42;13.30;1.00
3794;DHT22;1912;51.358;12.282;2023-08-31T05:06:07;13.30;1.00
3794;DHT22;1912;51.358;12.282;2023-08-31T05:08:33;13.30;1.00
3794;DHT22;1912;51.358;12.282;2023-08-31T05:10:59;13.30;1.00
3794;DHT22;1912;51.358;12.282;2023-08-31T05:13:25;13.30;1.00
3794;DHT22;1912;51.358;12.282;2023-08-31T05:15:50;13.30;1.00
3794;DHT22;1912;51.358;12.282;2023-08-31T05:18:16;13.30;1.00
3794;DHT22;1912;51.358;12.282;2023-08-31T05:20:45;13.20;1.00
3794;DHT22;1912;51.358;12.282;2023-08-31T05:23:11;13.30;1.00
3794;DHT22;1912;51.358;12.282;2023-08-31T05:25:42;13.30;1.00
3794;DHT22;1912;51.358;12.282;2023-08-31T05:28:10;13.30;1.00
3794;DHT22;1912;51.358;12.282;2023-08-31T05:30:36;13.30;1.00
3794;DHT22;1912;51.358;12.282;2023-08-31T05:33:02;13.40;1.00
3794;DHT22;1912;51.358;12.282;2023-08-31T05:35:29;13.40;1.00
3794;DHT22;1912;51.358;12.282;2023-08-31T05:37:55;13.40;1.00
3794;DHT22;1912;51.358;12.282;2023-08-31T05:40:21;13.40;1.00
3794;DHT22;1912;51.358;12.282;2023-08-31T05:42:47;13.40;1.00
3794;DHT22;1912;51.358;12.282;2023-08-31T05:45:13;13.50;1.00
3794;DHT22;1912;51.358;12.282;2023-08-31T05:47:40;13.50;1.00
3794;DHT22;1912;51.358;12.282;2023-08-31T05:50:07;13.50;1.00
3794;DHT22;1912;51.358;12.282;2023-08-31T05:52:33;13.50;1.00
3794;DHT22;1912;51.358;12.282;2023-08-31T05:54:58;13.50;1.00
3794;DHT22;1912;51.358;12.282;2023-08-31T05:57:25;13.70;1.00
3794;DHT22;1912;51.358;12.282;2023-08-31T05:59:53;13.80;1.00
3794;DHT22;1912;51.358;12.282;2023-08-31T06:02:18;13.80;1.00
3794;DHT22;1912;51.358;12.282;2023-08-31T06:04:44;13.80;1.00
3794;DHT22;1912;51.358;12.282;2023-08-31T06:07:10;13.80;1.00
3794;DHT22;1912;51.358;12.282;2023-08-31T06:09:36;13.80;1.00
3794;DHT22;1912;51.358;12.282;2023-08-31T06:12:04;13.80;1.00
3794;DHT22;1912;51.358;12.282;2023-08-31T06:14:31;13.80;1.00
3794;DHT22;1912;51.358;12.282;2023-08-31T06:16:58;13.90;1.00
3794;DHT22;1912;51.358;12.282;2023-08-31T06:19:23;14.20;1.00
3794;DHT22;1912;51.358;12.282;2023-08-31T06:21:49;14.30;1.00
3794;DHT22;1912;51.358;12.282;2023-08-31T06:24:15;14.20;1.00
3794;DHT22;1912;51.358;12.282;2023-08-31T06:26:41;14.20;1.00
3794;DHT22;1912;51.358;12.282;2023-08-31T06:29:07;14.40;1.00
3794;DHT22;1912;51.358;12.282;2023-08-31T06:31:36;14.40;1.00
3794;DHT22;1912;51.358;12.282;2023-08-31T06:34:02;14.60;1.00
3794;DHT22;1912;51.358;12.282;2023-08-31T06:36:29;14.60;1.00
3794;DHT22;1912;51.358;12.282;2023-08-31T06:38:55;14.80;1.00
3794;DHT22;1912;51.358;12.282;2023-08-31T06:41:21;14.90;1.00
3794;DHT22;1912;51.358;12.282;2023-08-31T06:43:47;15.00;1.00
3794;DHT22;1912;51.358;12.282;2023-08-31T06:46:12;15.20;1.00
3794;DHT22;1912;51.358;12.282;2023-08-31T06:48:38;15.30;1.00
3794;DHT22;1912;51.358;12.282;2023-08-31T06:51:04;15.40;1.00
3794;DHT22;1912;51.358;12.282;2023-08-31T06:53:30;15.60;1.00
3794;DHT22;1912;51.358;12.282;2023-08-31T06:55:57;15.70;1.00
3794;DHT22;1912;51.358;12.282;2023-08-31T06:58:22;15.80;1.00
3794;DHT22;1912;51.358;12.282;2023-08-31T07:00:48;16.00;1.00
3794;DHT22;1912;51.358;12.282;2023-08-31T07:03:14;15.90;1.00
3794;DHT22;1912;51.358;12.282;2023-08-31T07:05:42;16.00;1.00
3794;DHT22;1912;51.358;12.282;2023-08-31T07:08:08;16.30;1.00
3794;DHT22;1912;51.358;12.282;2023-08-31T07:10:34;16.20;1.00
3794;DHT22;1912;51.358;12.282;2023-08-31T07:13:04;16.30;1.00
3794;DHT22;1912;51.358;12.282;2023-08-31T07:15:30;16.60;1.00
3794;DHT22;1912;51.358;12.282;2023-08-31T07:17:56;16.10;1.00
3794;DHT22;1912;51.358;12.282;2023-08-31T07:20:21;15.90;1.00
3794;DHT22;1912;51.358;12.282;2023-08-31T07:22:47;15.80;1.00
3794;DHT22;1912;51.358;12.282;2023-08-31T07:25:13;15.70;1.00
3794;DHT22;1912;51.358;12.282;2023-08-31T07:27:40;15.80;1.00
3794;DHT22;1912;51.358;12.282;2023-08-31T07:30:06;15.60;1.00
3794;DHT22;1912;51.358;12.282;2023-08-31T07:32:32;15.60;1.00
3794;DHT22;1912;51.358;12.282;2023-08-31T07:34:58;15.50;1.00
3794;DHT22;1912;51.358;12.282;2023-08-31T07:37:24;15.40;1.00
3794;DHT22;1912;51.358;12.282;2023-08-31T07:39:50;15.60;1.00
3794;DHT22;1912;51.358;12.282;2023-08-31T07:42:16;15.90;1.00
3794;DHT22;1912;51.358;12.282;2023-08-31T07:44:41;16.20;1.00
3794;DHT22;1912;51.358;12.282;2023-08-31T07:47:09;16.50;1.00
3794;DHT22;1912;51.358;12.282;2023-08-31T07:49:35;16.90;1.00
3794;DHT22;1912;51.358;12.282;2023-08-31T07:52:01;17.20;1.00
3794;DHT22;1912;51.358;12.282;2023-08-31T07:54:28;17.50;1.00
3794;DHT22;1912;51.358;12.282;2023-08-31T07:56:54;17.50;1.00
3794;DHT22;1912;51.358;12.282;2023-08-31T07:59:19;17.50;1.00
3794;DHT22;1912;51.358;12.282;2023-08-31T08:01:46;17.40;1.00
3794;DHT22;1912;51.358;12.282;2023-08-31T08:04:11;17.30;1.00
3794;DHT22;1912;51.358;12.282;2023-08-31T08:06:37;17.20;1.00
3794;DHT22;1912;51.358;12.282;2023-08-31T08:09:03;17.20;1.00
3794;DHT22;1912;51.358;12.282;2023-08-31T08:11:30;17.00;1.00
3794;DHT22;1912;51.358;12.282;2023-08-31T08:13:56;16.80;1.00
3794;DHT22;1912;51.358;12.282;2023-08-31T08:16:22;16.80;1.00
3794;DHT22;1912;51.358;12.282;2023-08-31T08:18:48;16.70;1.00
3794;DHT22;1912;51.358;12.282;2023-08-31T08:21:14;16.60;1.00
3794;DHT22;1912;51.358;12.282;2023-08-31T08:23:40;16.40;1.00
3794;DHT22;1912;51.358;12.282;2023-08-31T08:26:06;16.30;1.00
3794;DHT22;1912;51.358;12.282;2023-08-31T08:28:33;16.30;1.00
3794;DHT22;1912;51.358;12.282;2023-08-31T08:31:01;16.10;1.00
3794;DHT22;1912;51.358;12.282;2023-08-31T08:33:29;15.90;1.00
3794;DHT22;1912;51.358;12.282;2023-08-31T08:35:58;15.90;1.00
3794;DHT22;1912;51.358;12.282;2023-08-31T08:38:25;15.90;1.00
3794;DHT22;1912;51.358;12.282;2023-08-31T08:40:51;15.90;1.00
3794;DHT22;1912;51.358;12.282;2023-08-31T08:43:22;15.90;1.00
3794;DHT22;1912;51.358;12.282;2023-08-31T08:45:51;16.00;1.00
3794;DHT22;1912;51.358;12.282;2023-08-31T08:48:17;16.00;1.00
3794;DHT22;1912;51.358;12.282;2023-08-31T08:50:44;16.00;1.00
3794;DHT22;1912;51.358;12.282;2023-08-31T08:53:11;16.00;1.00
3794;DHT22;1912;51.358;12.282;2023-08-31T08:55:38;16.20;1.00
3794;DHT22;1912;51.358;12.282;2023-08-31T08:58:06;16.30;1.00
3794;DHT22;1912;51.358;12.282;2023-08-31T09:00:32;16.20;1.00
3794;DHT22;1912;51.358;12.282;2023-08-31T09:03:00;16.10;1.00
3794;DHT22;1912;51.358;12.282;2023-08-31T09:05:26;16.10;1.00
3794;DHT22;1912;51.358;12.282;2023-08-31T09:08:04;16.10;1.00
3794;DHT22;1912;51.358;12.282;2023-08-31T09:10:42;16.10;1.00
3794;DHT22;1912;51.358;12.282;2023-08-31T09:13:16;16.10;1.00
3794;DHT22;1912;51.358;12.282;2023-08-31T09:15:44;16.20;1.00
3794;DHT22;1912;51.358;12.282;2023-08-31T09:18:29;16.20;1.00
3794;DHT22;1912;51.358;12.282;2023-08-31T09:21:00;16.20;1.00
3794;DHT22;1912;51.358;12.282;2023-08-31T09:23:26;16.00;1.00
3794;DHT22;1912;51.358;12.282;2023-08-31T09:25:54;15.80;1.00
3794;DHT22;1912;51.358;12.282;2023-08-31T09:28:22;15.70;1.00
3794;DHT22;1912;51.358;12.282;2023-08-31T09:30:51;16.10;1.00
3794;DHT22;1912;51.358;12.282;2023-08-31T09:33:19;16.40;1.00
3794;DHT22;1912;51.358;12.282;2023-08-31T09:36:12;16.70;1.00
3794;DHT22;1912;51.358;12.282;2023-08-31T09:38:44;17.10;1.00
3794;DHT22;1912;51.358;12.282;2023-08-31T09:41:10;17.40;1.00
3794;DHT22;1912;51.358;12.282;2023-08-31T09:43:36;17.60;1.00
3794;DHT22;1912;51.358;12.282;2023-08-31T09:46:04;17.90;1.00
3794;DHT22;1912;51.358;12.282;2023-08-31T09:48:30;18.10;1.00
3794;DHT22;1912;51.358;12.282;2023-08-31T09:50:57;17.90;1.00
3794;DHT22;1912;51.358;12.282;2023-08-31T09:53:24;18.30;1.00
3794;DHT22;1912;51.358;12.282;2023-08-31T09:55:51;18.30;1.00
3794;DHT22;1912;51.358;12.282;2023-08-31T09:58:18;18.60;1.00
3794;DHT22;1912;51.358;12.282;2023-08-31T10:00:46;18.70;1.00
3794;DHT22;1912;51.358;12.282;2023-08-31T10:03:12;18.60;1.00
3794;DHT22;1912;51.358;12.282;2023-08-31T10:05:45;18.50;1.00
3794;DHT22;1912;51.358;12.282;2023-08-31T10:08:14;18.60;1.00
3794;DHT22;1912;51.358;12.282;2023-08-31T10:10:41;18.30;1.00
3794;DHT22;1912;51.358;12.282;2023-08-31T10:13:07;18.10;1.00
3794;DHT22;1912;51.358;12.282;2023-08-31T10:15:37;17.60;1.00
3794;DHT22;1912;51.358;12.282;2023-08-31T10:18:05;17.50;1.00
3794;DHT22;1912;51.358;12.282;2023-08-31T10:20:32;17.60;1.00
3794;DHT22;1912;51.358;12.282;2023-08-31T10:23:07;18.00;1.00
3794;DHT22;1912;51.358;12.282;2023-08-31T10:28:26;18.50;1.00
3794;DHT22;1912;51.358;12.282;2023-08-31T10:31:08;18.70;1.00
3794;DHT22;1912;51.358;12.282;2023-08-31T10:33:46;19.20;1.00
3794;DHT22;1912;51.358;12.282;2023-08-31T10:36:15;19.40;1.00
3794;DHT22;1912;51.358;12.282;2023-08-31T10:38:45;19.70;1.00
3794;DHT22;1912;51.358;12.282;2023-08-31T10:41:35;19.70;1.00
3794;DHT22;1912;51.358;12.282;2023-08-31T10:44:02;20.00;1.00
3794;DHT22;1912;51.358;12.282;2023-08-31T10:46:34;20.30;1.00
3794;DHT22;1912;51.358;12.282;2023-08-31T10:51:41;20.00;1.00
3794;DHT22;1912;51.358;12.282;2023-08-31T10:57:00;19.50;1.00
3794;DHT22;1912;51.358;12.282;2023-08-31T10:59:50;18.60;1.00
3794;DHT22;1912;51.358;12.282;2023-08-31T11:05:12;19.60;1.00
3794;DHT22;1912;51.358;12.282;2023-08-31T11:07:46;20.00;1.00
3794;DHT22;1912;51.358;12.282;2023-08-31T11:10:23;20.30;1.00
3794;DHT22;1912;51.358;12.282;2023-08-31T11:12:53;20.80;1.00
3794;DHT22;1912;51.358;12.282;2023-08-31T11:15:21;21.20;1.00
3794;DHT22;1912;51.358;12.282;2023-08-31T11:17:52;21.20;1.00
3794;DHT22;1912;51.358;12.282;2023-08-31T11:20:20;21.00;1.00
3794;DHT22;1912;51.358;12.282;2023-08-31T11:22:48;21.40;1.00
3794;DHT22;1912;51.358;12.282;2023-08-31T11:25:16;21.30;1.00
3794;DHT22;1912;51.358;12.282;2023-08-31T11:27:53;21.00;1.00
3794;DHT22;1912;51.358;12.282;2023-08-31T11:30:20;21.10;1.00
3794;DHT22;1912;51.358;12.282;2023-08-31T11:32:51;21.30;1.00
3794;DHT22;1912;51.358;12.282;2023-08-31T11:35:18;21.10;1.00
3794;DHT22;1912;51.358;12.282;2023-08-31T11:37:49;20.40;1.00
3794;DHT22;1912;51.358;12.282;2023-08-31T11:40:15;20.00;1.00
3794;DHT22;1912;51.358;12.282;2023-08-31T11:42:41;20.60;1.00
3794;DHT22;1912;51.358;12.282;2023-08-31T11:45:08;20.60;1.00
3794;DHT22;1912;51.358;12.282;2023-08-31T11:47:35;19.90;1.00
3794;DHT22;1912;51.358;12.282;2023-08-31T11:50:01;19.90;1.00
3794;DHT22;1912;51.358;12.282;2023-08-31T11:52:31;20.20;1.00
3794;DHT22;1912;51.358;12.282;2023-08-31T11:54:57;20.50;1.00
3794;DHT22;1912;51.358;12.282;2023-08-31T11:57:26;20.70;1.00
3794;DHT22;1912;51.358;12.282;2023-08-31T11:59:53;21.30;1.00
3794;DHT22;1912;51.358;12.282;2023-08-31T12:02:20;21.30;1.00
3794;DHT22;1912;51.358;12.282;2023-08-31T12:04:47;21.60;1.00
3794;DHT22;1912;51.358;12.282;2023-08-31T12:07:18;21.80;1.00
3794;DHT22;1912;51.358;12.282;2023-08-31T12:09:45;21.50;1.00
3794;DHT22;1912;51.358;12.282;2023-08-31T12:12:13;20.80;1.00
3794;DHT22;1912;51.358;12.282;2023-08-31T12:14:40;20.40;1.00
3794;DHT22;1912;51.358;12.282;2023-08-31T12:17:07;20.40;1.00
3794;DHT22;1912;51.358;12.282;2023-08-31T12:19:36;20.50;1.00
3794;DHT22;1912;51.358;12.282;2023-08-31T12:22:03;20.40;1.00
3794;DHT22;1912;51.358;12.282;2023-08-31T12:24:29;20.50;1.00
3794;DHT22;1912;51.358;12.282;2023-08-31T12:26:55;21.00;1.00
3794;DHT22;1912;51.358;12.282;2023-08-31T12:29:21;21.90;1.00
3794;DHT22;1912;51.358;12.282;2023-08-31T12:31:47;22.40;1.00
3794;DHT22;1912;51.358;12.282;2023-08-31T12:34:14;22.20;1.00
3794;DHT22;1912;51.358;12.282;2023-08-31T12:36:40;21.70;1.00
3794;DHT22;1912;51.358;12.282;2023-08-31T12:39:09;21.80;1.00
3794;DHT22;1912;51.358;12.282;2023-08-31T12:41:36;22.10;1.00
3794;DHT22;1912;51.358;12.282;2023-08-31T12:44:06;22.40;1.00
3794;DHT22;1912;51.358;12.282;2023-08-31T12:46:32;22.20;1.00
3794;DHT22;1912;51.358;12.282;2023-08-31T12:49:02;22.40;1.00
3794;DHT22;1912;51.358;12.282;2023-08-31T12:51:30;22.50;1.00
3794;DHT22;1912;51.358;12.282;2023-08-31T12:53:56;22.10;1.00
3794;DHT22;1912;51.358;12.282;2023-08-31T12:56:22;21.90;1.00
3794;DHT22;1912;51.358;12.282;2023-08-31T12:58:52;21.60;1.00
3794;DHT22;1912;51.358;12.282;2023-08-31T13:01:20;21.90;1.00
3794;DHT22;1912;51.358;12.282;2023-08-31T13:03:47;22.30;1.00
3794;DHT22;1912;51.358;12.282;2023-08-31T13:06:13;21.50;1.00
3794;DHT22;1912;51.358;12.282;2023-08-31T13:08:40;22.20;1.00
3794;DHT22;1912;51.358;12.282;2023-08-31T13:11:05;22.70;1.00
3794;DHT22;1912;51.358;12.282;2023-08-31T13:13:32;22.30;1.00
3794;DHT22;1912;51.358;12.282;2023-08-31T13:15:58;22.10;1.00
3794;DHT22;1912;51.358;12.282;2023-08-31T13:18:24;21.50;1.00
3794;DHT22;1912;51.358;12.282;2023-08-31T13:20:51;21.80;1.00
3794;DHT22;1912;51.358;12.282;2023-08-31T13:23:20;22.20;1.00
3794;DHT22;1912;51.358;12.282;2023-08-31T13:25:46;22.70;1.00
3794;DHT22;1912;51.358;12.282;2023-08-31T13:28:12;22.60;1.00
3794;DHT22;1912;51.358;12.282;2023-08-31T13:30:38;22.40;1.00
3794;DHT22;1912;51.358;12.282;2023-08-31T13:33:04;22.70;1.00
3794;DHT22;1912;51.358;12.282;2023-08-31T13:35:31;22.70;1.00
3794;DHT22;1912;51.358;12.282;2023-08-31T13:37:56;22.60;1.00
3794;DHT22;1912;51.358;12.282;2023-08-31T13:40:22;22.60;1.00
3794;DHT22;1912;51.358;12.282;2023-08-31T13:42:59;22.60;1.00
3794;DHT22;1912;51.358;12.282;2023-08-31T13:45:29;22.20;1.00
3794;DHT22;1912;51.358;12.282;2023-08-31T13:47:56;21.40;1.00
3794;DHT22;1912;51.358;12.282;2023-08-31T13:50:22;20.90;1.00
3794;DHT22;1912;51.358;12.282;2023-08-31T13:52:48;20.80;1.00
3794;DHT22;1912;51.358;12.282;2023-08-31T13:55:14;21.00;1.00
3794;DHT22;1912;51.358;12.282;2023-08-31T13:57:42;21.50;1.00
3794;DHT22;1912;51.358;12.282;2023-08-31T14:00:09;21.50;1.00
3794;DHT22;1912;51.358;12.282;2023-08-31T14:02:36;21.10;1.00
3794;DHT22;1912;51.358;12.282;2023-08-31T14:05:03;20.80;1.00
3794;DHT22;1912;51.358;12.282;2023-08-31T14:07:29;20.50;1.00
3794;DHT22;1912;51.358;12.282;2023-08-31T14:09:55;20.20;1.00
3794;DHT22;1912;51.358;12.282;2023-08-31T14:12:21;20.20;1.00
3794;DHT22;1912;51.358;12.282;2023-08-31T14:14:47;20.20;1.00
3794;DHT22;1912;51.358;12.282;2023-08-31T14:17:13;20.20;1.00
3794;DHT22;1912;51.358;12.282;2023-08-31T14:19:38;20.90;1.00
3794;DHT22;1912;51.358;12.282;2023-08-31T14:22:05;21.50;1.00
3794;DHT22;1912;51.358;12.282;2023-08-31T14:24:31;21.70;1.00
3794;DHT22;1912;51.358;12.282;2023-08-31T14:26:56;22.30;1.00
3794;DHT22;1912;51.358;12.282;2023-08-31T14:29:23;22.30;1.00
3794;DHT22;1912;51.358;12.282;2023-08-31T14:31:49;22.20;1.00
3794;DHT22;1912;51.358;12.282;2023-08-31T14:34:14;22.30;1.00
3794;DHT22;1912;51.358;12.282;2023-08-31T14:36:40;22.20;1.00
3794;DHT22;1912;51.358;12.282;2023-08-31T14:39:06;21.80;1.00
3794;DHT22;1912;51.358;12.282;2023-08-31T14:41:31;21.70;1.00
3794;DHT22;1912;51.358;12.282;2023-08-31T14:43:57;22.00;1.00
3794;DHT22;1912;51.358;12.282;2023-08-31T14:46:23;22.00;1.00
3794;DHT22;1912;51.358;12.282;2023-08-31T14:48:50;22.50;1.00
3794;DHT22;1912;51.358;12.282;2023-08-31T14:51:16;22.40;1.00
3794;DHT22;1912;51.358;12.282;2023-08-31T14:53:42;22.40;1.00
3794;DHT22;1912;51.358;12.282;2023-08-31T14:56:08;22.50;1.00
3794;DHT22;1912;51.358;12.282;2023-08-31T14:58:34;22.50;1.00
3794;DHT22;1912;51.358;12.282;2023-08-31T15:01:00;22.40;1.00
3794;DHT22;1912;51.358;12.282;2023-08-31T15:03:26;22.00;1.00
3794;DHT22;1912;51.358;12.282;2023-08-31T15:05:51;21.90;1.00
3794;DHT22;1912;51.358;12.282;2023-08-31T15:08:17;21.80;1.00
3794;DHT22;1912;51.358;12.282;2023-08-31T15:10:43;21.70;1.00
3794;DHT22;1912;51.358;12.282;2023-08-31T15:13:09;21.60;1.00
3794;DHT22;1912;51.358;12.282;2023-08-31T15:15:35;21.50;1.00
3794;DHT22;1912;51.358;12.282;2023-08-31T15:18:01;21.40;1.00
3794;DHT22;1912;51.358;12.282;2023-08-31T15:20:27;21.30;1.00
3794;DHT22;1912;51.358;12.282;2023-08-31T15:22:53;21.30;1.00
3794;DHT22;1912;51.358;12.282;2023-08-31T15:25:19;21.30;1.00
3794;DHT22;1912;51.358;12.282;2023-08-31T15:27:45;21.10;1.00
3794;DHT22;1912;51.358;12.282;2023-08-31T15:30:11;21.10;1.00
3794;DHT22;1912;51.358;12.282;2023-08-31T15:32:37;21.20;1.00
3794;DHT22;1912;51.358;12.282;2023-08-31T15:35:04;21.00;1.00
3794;DHT22;1912;51.358;12.282;2023-08-31T15:37:30;21.00;1.00
3794;DHT22;1912;51.358;12.282;2023-08-31T15:39:56;20.80;1.00
3794;DHT22;1912;51.358;12.282;2023-08-31T15:42:24;21.20;1.00
3794;DHT22;1912;51.358;12.282;2023-08-31T15:44:51;21.20;1.00
3794;DHT22;1912;51.358;12.282;2023-08-31T15:47:18;20.90;1.00
3794;DHT22;1912;51.358;12.282;2023-08-31T15:49:44;20.70;1.00
3794;DHT22;1912;51.358;12.282;2023-08-31T15:52:09;20.80;1.00
3794;DHT22;1912;51.358;12.282;2023-08-31T15:54:35;20.70;1.00
3794;DHT22;1912;51.358;12.282;2023-08-31T15:57:01;20.70;1.00
3794;DHT22;1912;51.358;12.282;2023-08-31T15:59:28;20.60;1.00
3794;DHT22;1912;51.358;12.282;2023-08-31T16:01:53;20.40;1.00
3794;DHT22;1912;51.358;12.282;2023-08-31T16:04:19;20.20;1.00
3794;DHT22;1912;51.358;12.282;2023-08-31T16:06:45;20.20;1.00
3794;DHT22;1912;51.358;12.282;2023-08-31T16:09:11;20.10;1.00
3794;DHT22;1912;51.358;12.282;2023-08-31T16:11:38;20.30;1.00
3794;DHT22;1912;51.358;12.282;2023-08-31T16:14:04;20.40;1.00
3794;DHT22;1912;51.358;12.282;2023-08-31T16:16:30;20.30;1.00
3794;DHT22;1912;51.358;12.282;2023-08-31T16:18:55;20.20;1.00
3794;DHT22;1912;51.358;12.282;2023-08-31T16:21:21;19.90;1.00
3794;DHT22;1912;51.358;12.282;2023-08-31T16:23:47;19.90;1.00
3794;DHT22;1912;51.358;12.282;2023-08-31T16:26:12;19.80;1.00
3794;DHT22;1912;51.358;12.282;2023-08-31T16:28:38;19.80;1.00
3794;DHT22;1912;51.358;12.282;2023-08-31T16:31:04;19.90;1.00
3794;DHT22;1912;51.358;12.282;2023-08-31T16:33:30;19.80;1.00
3794;DHT22;1912;51.358;12.282;2023-08-31T16:36:00;19.70;1.00
3794;DHT22;1912;51.358;12.282;2023-08-31T16:38:26;19.70;1.00
3794;DHT22;1912;51.358;12.282;2023-08-31T16:40:52;19.70;1.00
3794;DHT22;1912;51.358;12.282;2023-08-31T16:43:18;19.60;1.00
3794;DHT22;1912;51.358;12.282;2023-08-31T16:45:44;19.40;1.00
3794;DHT22;1912;51.358;12.282;2023-08-31T16:48:09;19.20;1.00
3794;DHT22;1912;51.358;12.282;2023-08-31T16:50:36;19.20;1.00
3794;DHT22;1912;51.358;12.282;2023-08-31T16:53:02;19.20;1.00
3794;DHT22;1912;51.358;12.282;2023-08-31T16:55:30;19.30;1.00
3794;DHT22;1912;51.358;12.282;2023-08-31T16:57:56;19.30;1.00
3794;DHT22;1912;51.358;12.282;2023-08-31T17:00:22;19.20;1.00
3794;DHT22;1912;51.358;12.282;2023-08-31T17:02:48;19.10;1.00
3794;DHT22;1912;51.358;12.282;2023-08-31T17:05:14;19.10;1.00
3794;DHT22;1912;51.358;12.282;2023-08-31T17:07:40;19.10;1.00
3794;DHT22;1912;51.358;12.282;2023-08-31T17:10:07;19.10;1.00
3794;DHT22;1912;51.358;12.282;2023-08-31T17:12:33;19.10;1.00
3794;DHT22;1912;51.358;12.282;2023-08-31T17:14:59;19.00;1.00
3794;DHT22;1912;51.358;12.282;2023-08-31T17:17:25;18.90;1.00
3794;DHT22;1912;51.358;12.282;2023-08-31T17:19:56;18.80;1.00
3794;DHT22;1912;51.358;12.282;2023-08-31T17:22:23;18.80;1.00
3794;DHT22;1912;51.358;12.282;2023-08-31T17:24:49;18.60;1.00
3794;DHT22;1912;51.358;12.282;2023-08-31T17:27:14;18.60;1.00
3794;DHT22;1912;51.358;12.282;2023-08-31T17:29:40;18.60;1.00
3794;DHT22;1912;51.358;12.282;2023-08-31T17:32:06;18.40;1.00
3794;DHT22;1912;51.358;12.282;2023-08-31T17:34:31;18.00;1.00
3794;DHT22;1912;51.358;12.282;2023-08-31T17:36:58;17.60;1.00
3794;DHT22;1912;51.358;12.282;2023-08-31T17:39:24;17.20;1.00
3794;DHT22;1912;51.358;12.282;2023-08-31T17:41:50;17.00;1.00
3794;DHT22;1912;51.358;12.282;2023-08-31T17:44:15;16.90;1.00
3794;DHT22;1912;51.358;12.282;2023-08-31T17:46:41;16.80;1.00
3794;DHT22;1912;51.358;12.282;2023-08-31T17:49:07;16.60;1.00
3794;DHT22;1912;51.358;12.282;2023-08-31T17:51:33;16.50;1.00
3794;DHT22;1912;51.358;12.282;2023-08-31T17:53:59;16.30;1.00
3794;DHT22;1912;51.358;12.282;2023-08-31T17:56:25;16.20;1.00
3794;DHT22;1912;51.358;12.282;2023-08-31T17:58:53;16.20;1.00
3794;DHT22;1912;51.358;12.282;2023-08-31T18:01:19;16.20;1.00
3794;DHT22;1912;51.358;12.282;2023-08-31T18:03:45;16.20;1.00
3794;DHT22;1912;51.358;12.282;2023-08-31T18:06:13;16.20;1.00
3794;DHT22;1912;51.358;12.282;2023-08-31T18:08:39;16.20;1.00
3794;DHT22;1912;51.358;12.282;2023-08-31T18:11:06;16.20;1.00
3794;DHT22;1912;51.358;12.282;2023-08-31T18:13:32;16.20;1.00
3794;DHT22;1912;51.358;12.282;2023-08-31T18:15:59;16.20;1.00
3794;DHT22;1912;51.358;12.282;2023-08-31T18:18:25;16.20;1.00
3794;DHT22;1912;51.358;12.282;2023-08-31T18:20:59;16.20;1.00
3794;DHT22;1912;51.358;12.282;2023-08-31T18:23:26;16.20;1.00
3794;DHT22;1912;51.358;12.282;2023-08-31T18:25:52;16.20;1.00
3794;DHT22;1912;51.358;12.282;2023-08-31T18:28:18;16.20;1.00
3794;DHT22;1912;51.358;12.282;2023-08-31T18:30:58;16.20;1.00
3794;DHT22;1912;51.358;12.282;2023-08-31T18:33:26;16.10;1.00
3794;DHT22;1912;51.358;12.282;2023-08-31T18:35:54;15.90;1.00
3794;DHT22;1912;51.358;12.282;2023-08-31T18:38:24;15.80;1.00
3794;DHT22;1912;51.358;12.282;2023-08-31T18:40:52;15.70;1.00
3794;DHT22;1912;51.358;12.282;2023-08-31T18:43:20;15.70;1.00
3794;DHT22;1912;51.358;12.282;2023-08-31T18:45:47;15.70;1.00
3794;DHT22;1912;51.358;12.282;2023-08-31T18:48:14;15.70;1.00
3794;DHT22;1912;51.358;12.282;2023-08-31T18:50:40;15.70;1.00
3794;DHT22;1912;51.358;12.282;2023-08-31T18:53:07;15.60;1.00
3794;DHT22;1912;51.358;12.282;2023-08-31T18:55:34;15.30;1.00
3794;DHT22;1912;51.358;12.282;2023-08-31T18:58:01;15.10;1.00
3794;DHT22;1912;51.358;12.282;2023-08-31T19:00:27;15.00;1.00
3794;DHT22;1912;51.358;12.282;2023-08-31T19:02:53;14.90;1.00
3794;DHT22;1912;51.358;12.282;2023-08-31T19:05:19;14.80;1.00
3794;DHT22;1912;51.358;12.282;2023-08-31T19:07:45;14.50;1.00
3794;DHT22;1912;51.358;12.282;2023-08-31T19:10:11;14.40;1.00
3794;DHT22;1912;51.358;12.282;2023-08-31T19:12:39;14.10;1.00
3794;DHT22;1912;51.358;12.282;2023-08-31T19:15:07;13.80;1.00
3794;DHT22;1912;51.358;12.282;2023-08-31T19:17:32;13.80;1.00
3794;DHT22;1912;51.358;12.282;2023-08-31T19:19:58;13.70;1.00
3794;DHT22;1912;51.358;12.282;2023-08-31T19:22:24;13.60;1.00
3794;DHT22;1912;51.358;12.282;2023-08-31T19:24:51;13.50;1.00
3794;DHT22;1912;51.358;12.282;2023-08-31T19:27:16;13.40;1.00
3794;DHT22;1912;51.358;12.282;2023-08-31T19:29:42;13.40;1.00
3794;DHT22;1912;51.358;12.282;2023-08-31T19:32:08;13.40;1.00
3794;DHT22;1912;51.358;12.282;2023-08-31T19:34:34;13.40;1.00
3794;DHT22;1912;51.358;12.282;2023-08-31T19:37:02;13.40;1.00
3794;DHT22;1912;51.358;12.282;2023-08-31T19:39:29;13.40;1.00
3794;DHT22;1912;51.358;12.282;2023-08-31T19:41:57;13.40;1.00
3794;DHT22;1912;51.358;12.282;2023-08-31T19:44:26;13.30;1.00
3794;DHT22;1912;51.358;12.282;2023-08-31T19:46:52;13.40;1.00
3794;DHT22;1912;51.358;12.282;2023-08-31T19:49:18;13.30;1.00
3794;DHT22;1912;51.358;12.282;2023-08-31T19:51:44;13.30;1.00
3794;DHT22;1912;51.358;12.282;2023-08-31T19:54:09;13.20;1.00
3794;DHT22;1912;51.358;12.282;2023-08-31T19:56:39;13.30;1.00